PHX weather

Phoenix Sky Harbor International Airport
Phoenix, Arizona, United States

Public forecast

Using degrees Fahrenheit for public forecast. Weather courtesy of forecast.io.

Current aviation weather report (METAR) for Phoenix Sky Harbor International Airport

Retrieved 2020/08/05 17:51 UTC (37 minutes ago):

KPHX 051751Z 13009KT 10SM FEW100 FEW150 FEW200 39/14 A2984 RMK AO2 SLP080 FU FEW200 T03940139 10394 20322 58001

Aviation forecast (TAF) for Phoenix Sky Harbor International Airport

Retrieved 2020/08/05 18:30 UTC (0 seconds ago):

TAF KPHX 051726Z 0518/0624 17004KT P6SM FEW150 FEW250 FM052000 25007KT P6SM FEW150 FEW250 FM061100 12005KT P6SM FEW250 FM062100 23006KT P6SM FEW250